Time,TemperatureF,DewpointF,PressureIn,WindDirection,WindDirectionDegrees,WindSpeedMPH,WindSpeedGustMPH,Humidity,HourlyPrecipIn,Conditions,Clouds,dailyrainin,SoftwareType,DateUTC
2013-07-08 00:02:00,72.1,71.2,29.85,NNW,337,0.0,-999.0,97,-99.99,,,0.00,Acu-Link.com,2013-07-08 04:02:00,
2013-07-08 00:17:00,72.1,71.2,29.85,West,270,0.0,-999.0,97,-99.99,,,0.00,Acu-Link.com,2013-07-08 04:17:00,
2013-07-08 00:32:00,72.1,71.5,29.84,WNW,292,0.0,-999.0,98,-99.99,,,0.00,Acu-Link.com,2013-07-08 04:32:00,
2013-07-08 00:47:00,72.0,71.1,29.85,NW,315,0.0,-999.0,97,-99.99,,,0.00,Acu-Link.com,2013-07-08 04:47:00,
2013-07-08 01:03:00,71.6,70.4,29.84,West,270,0.0,-999.0,96,-99.99,,,0.00,Acu-Link.com,2013-07-08 05:03:00,
2013-07-08 01:18:00,71.4,70.5,29.85,NW,315,0.0,-999.0,97,-99.99,,,0.00,Acu-Link.com,2013-07-08 05:18:00,
2013-07-08 01:33:00,71.2,70.3,29.85,WSW,247,0.0,-999.0,97,-99.99,,,0.00,Acu-Link.com,2013-07-08 05:33:00,
2013-07-08 01:48:00,71.4,70.8,29.85,WSW,247,0.0,-999.0,98,-99.99,,,0.00,Acu-Link.com,2013-07-08 05:48:00,
2013-07-08 02:03:00,71.4,70.5,29.85,West,270,0.0,-999.0,97,-99.99,,,0.00,Acu-Link.com,2013-07-08 06:03:00,
2013-07-08 02:19:00,71.4,70.5,29.85,West,270,0.0,-999.0,97,-99.99,,,0.00,Acu-Link.com,2013-07-08 06:19:00,
2013-07-08 02:34:00,71.1,70.2,29.85,WSW,247,0.0,-999.0,97,-99.99,,,0.00,Acu-Link.com,2013-07-08 06:34:00,
2013-07-08 02:49:00,70.9,70.0,29.85,West,270,0.0,-999.0,97,-99.99,,,0.00,Acu-Link.com,2013-07-08 06:49:00,
2013-07-08 03:04:00,70.9,70.3,29.85,WSW,247,0.0,-999.0,98,-99.99,,,0.00,Acu-Link.com,2013-07-08 07:04:00,
2013-07-08 03:19:00,71.1,70.5,29.84,West,270,0.0,-999.0,98,-99.99,,,0.00,Acu-Link.com,2013-07-08 07:19:00,
2013-07-08 03:35:00,70.7,69.8,29.84,West,270,0.0,-999.0,97,-99.99,,,0.00,Acu-Link.com,2013-07-08 07:35:00,
2013-07-08 03:50:00,70.7,69.8,29.84,WNW,292,0.0,-999.0,97,-99.99,,,0.00,Acu-Link.com,2013-07-08 07:50:00,
2013-07-08 04:05:00,70.5,69.6,29.84,West,270,0.0,-999.0,97,-99.99,,,0.00,Acu-Link.com,2013-07-08 08:05:00,
2013-07-08 04:20:00,70.5,69.9,29.84,WNW,292,0.0,-999.0,98,-99.99,,,0.00,Acu-Link.com,2013-07-08 08:20:00,
2013-07-08 04:35:00,70.5,69.9,29.85,WNW,292,0.0,-999.0,98,-99.99,,,0.00,Acu-Link.com,2013-07-08 08:35:00,
2013-07-08 04:50:00,70.2,69.3,29.85,West,270,0.0,-999.0,97,-99.99,,,0.00,Acu-Link.com,2013-07-08 08:50:00,
2013-07-08 05:06:00,70.2,69.6,29.85,West,270,0.0,-999.0,98,-99.99,,,0.00,Acu-Link.com,2013-07-08 09:06:00,
2013-07-08 05:21:00,70.5,69.9,29.86,NW,315,0.0,-999.0,98,-99.99,,,0.00,Acu-Link.com,2013-07-08 09:21:00,
2013-07-08 05:36:00,70.5,69.9,29.87,West,270,0.0,-999.0,98,-99.99,,,0.00,Acu-Link.com,2013-07-08 09:36:00,
2013-07-08 05:51:00,70.7,69.8,29.87,NW,315,0.0,-999.0,97,-99.99,,,0.00,Acu-Link.com,2013-07-08 09:51:00,
2013-07-08 06:06:00,70.5,69.6,29.87,WNW,292,0.0,-999.0,97,-99.99,,,0.00,Acu-Link.com,2013-07-08 10:06:00,
2013-07-08 06:21:00,70.9,70.0,29.87,West,270,0.0,-999.0,97,-99.99,,,0.00,Acu-Link.com,2013-07-08 10:21:00,
2013-07-08 06:37:00,70.9,70.0,29.87,WNW,292,0.0,-999.0,97,-99.99,,,0.00,Acu-Link.com,2013-07-08 10:37:00,
2013-07-08 06:52:00,71.4,70.2,29.87,West,270,0.0,-999.0,96,-99.99,,,0.00,Acu-Link.com,2013-07-08 10:52:00,
2013-07-08 07:07:00,72.1,70.3,29.87,NNE,22,0.0,-999.0,94,-99.99,,,0.00,Acu-Link.com,2013-07-08 11:07:00,
2013-07-08 07:22:00,72.7,70.6,29.88,West,270,0.0,-999.0,93,-99.99,,,0.00,Acu-Link.com,2013-07-08 11:22:00,
2013-07-08 07:37:00,72.9,70.8,29.88,SW,225,0.0,-999.0,93,-99.99,,,0.00,Acu-Link.com,2013-07-08 11:37:00,
2013-07-08 07:53:00,73.2,71.4,29.88,SW,225,0.0,-999.0,94,-99.99,,,0.00,Acu-Link.com,2013-07-08 11:53:00,
2013-07-08 08:08:00,74.3,71.2,29.88,SSW,202,0.0,-999.0,90,-99.99,,,0.00,Acu-Link.com,2013-07-08 12:08:00,
2013-07-08 08:23:00,74.3,71.2,29.89,West,270,0.0,-999.0,90,-99.99,,,0.00,Acu-Link.com,2013-07-08 12:23:00,
2013-07-08 08:38:00,74.1,71.6,29.88,NE,45,0.0,-999.0,92,-99.99,,,0.00,Acu-Link.com,2013-07-08 12:38:00,
2013-07-08 08:53:00,74.1,71.0,29.88,NNE,22,0.0,-999.0,90,-99.99,,,0.00,Acu-Link.com,2013-07-08 12:53:00,
2013-07-08 09:09:00,74.3,70.2,29.89,NNE,22,0.0,-999.0,87,-99.99,,,0.00,Acu-Link.com,2013-07-08 13:09:00,
2013-07-08 09:24:00,74.5,70.7,29.88,NNE,22,3.7,-999.0,88,-99.99,,,0.00,Acu-Link.com,2013-07-08 13:24:00,
2013-07-08 09:39:00,75.6,70.4,29.88,East,90,1.1,-999.0,84,-99.99,,,0.00,Acu-Link.com,2013-07-08 13:39:00,
2013-07-08 09:54:00,74.8,71.7,29.89,SE,135,4.7,-999.0,90,-99.99,,,0.00,Acu-Link.com,2013-07-08 13:54:00,
2013-07-08 10:10:00,75.9,71.7,29.89,ESE,112,4.2,-999.0,87,-99.99,,,0.00,Acu-Link.com,2013-07-08 14:10:00,
2013-07-08 10:25:00,76.1,71.9,29.89,SE,135,5.3,-999.0,87,-99.99,,,0.00,Acu-Link.com,2013-07-08 14:25:00,
2013-07-08 10:40:00,76.8,71.9,29.89,SE,135,2.7,-999.0,85,-99.99,,,0.00,Acu-Link.com,2013-07-08 14:40:00,
2013-07-08 10:55:00,77.9,71.6,29.88,SSE,157,5.3,-999.0,81,-99.99,,,0.00,Acu-Link.com,2013-07-08 14:55:00,
2013-07-08 11:10:00,76.8,70.9,29.89,NW,315,5.8,-999.0,82,-99.99,,,0.00,Acu-Link.com,2013-07-08 15:10:00,
2013-07-08 11:26:00,78.4,70.2,29.89,SSE,157,2.2,-999.0,76,-99.99,,,0.00,Acu-Link.com,2013-07-08 15:26:00,
2013-07-08 11:41:00,79.0,70.0,29.89,ESE,112,0.0,-999.0,74,-99.99,,,0.00,Acu-Link.com,2013-07-08 15:41:00,
2013-07-08 11:56:00,80.2,70.3,29.89,SSE,157,3.7,-999.0,72,-99.99,,,0.00,Acu-Link.com,2013-07-08 15:56:00,
2013-07-08 12:11:00,79.3,69.9,29.89,SE,135,3.2,-999.0,73,-99.99,,,0.00,Acu-Link.com,2013-07-08 16:11:00,
2013-07-08 12:26:00,81.0,71.1,29.88,SSE,157,2.7,-999.0,72,-99.99,,,0.00,Acu-Link.com,2013-07-08 16:26:00,
2013-07-08 12:42:00,81.5,69.9,29.88,ESE,112,2.2,-999.0,68,-99.99,,,0.00,Acu-Link.com,2013-07-08 16:42:00,
2013-07-08 12:57:00,81.5,69.9,29.89,SE,135,0.0,-999.0,68,-99.99,,,0.00,Acu-Link.com,2013-07-08 16:57:00,
2013-07-08 13:12:00,80.2,70.7,29.89,NE,45,3.7,-999.0,73,-99.99,,,0.00,Acu-Link.com,2013-07-08 17:12:00,
2013-07-08 13:27:00,78.3,71.2,29.89,NW,315,5.8,-999.0,79,-99.99,,,0.00,Acu-Link.com,2013-07-08 17:27:00,
2013-07-08 13:42:00,77.0,71.1,29.89,NNE,22,5.3,-999.0,82,-99.99,,,0.00,Acu-Link.com,2013-07-08 17:42:00,
2013-07-08 13:58:00,76.6,69.6,29.89,NE,45,2.7,-999.0,79,-99.99,,,0.00,Acu-Link.com,2013-07-08 17:58:00,
2013-07-08 14:13:00,79.7,69.9,29.88,NE,45,4.2,-999.0,72,-99.99,,,0.00,Acu-Link.com,2013-07-08 18:13:00,
2013-07-08 14:28:00,80.6,70.7,29.87,NNE,22,4.7,-999.0,72,-99.99,,,0.00,Acu-Link.com,2013-07-08 18:28:00,
2013-07-08 14:59:00,80.2,70.3,29.87,NNE,22,4.7,-999.0,72,-99.99,,,0.00,Acu-Link.com,2013-07-08 18:59:00,
2013-07-08 15:29:00,80.4,69.7,29.87,NNE,22,6.3,-999.0,70,-99.99,,,0.00,Acu-Link.com,2013-07-08 19:29:00,
2013-07-08 15:44:00,80.6,70.3,29.87,NNW,337,6.8,-999.0,71,-99.99,,,0.00,Acu-Link.com,2013-07-08 19:44:00,
2013-07-08 16:45:00,75.0,69.8,29.89,NNE,22,8.3,-999.0,84,-99.99,,,0.00,Acu-Link.com,2013-07-08 20:45:00,
2013-07-08 17:46:00,73.2,69.8,29.89,NNW,337,4.7,-999.0,89,-99.99,,,0.00,Acu-Link.com,2013-07-08 21:46:00,
2013-07-08 18:01:00,73.9,69.8,29.90,NNE,22,3.2,-999.0,87,-99.99,,,0.00,Acu-Link.com,2013-07-08 22:01:00,
2013-07-08 18:16:00,73.9,69.4,29.91,NW,315,5.3,-999.0,86,-99.99,,,0.00,Acu-Link.com,2013-07-08 22:16:00,
2013-07-08 19:02:00,73.0,69.6,29.92,SSE,157,2.7,-999.0,89,-99.99,,,0.00,Acu-Link.com,2013-07-08 23:02:00,
2013-07-08 19:48:00,72.0,69.5,29.93,SSE,157,3.7,-999.0,92,-99.99,,,0.00,Acu-Link.com,2013-07-08 23:48:00,
2013-07-08 20:33:00,70.9,69.4,29.94,SE,135,4.2,-999.0,95,-99.99,,,0.00,Acu-Link.com,2013-07-09 00:33:00,
2013-07-08 20:48:00,70.7,69.2,29.94,SE,135,4.2,-999.0,95,-99.99,,,0.00,Acu-Link.com,2013-07-09 00:48:00,
2013-07-08 21:04:00,70.2,68.7,29.95,SSE,157,6.3,-999.0,95,-99.99,,,0.00,Acu-Link.com,2013-07-09 01:04:00,
2013-07-08 21:19:00,69.8,68.9,29.96,SSE,157,5.3,-999.0,97,-99.99,,,0.00,Acu-Link.com,2013-07-09 01:19:00,
2013-07-08 22:04:00,68.9,67.7,29.98,SE,135,3.7,-999.0,96,-99.99,,,0.00,Acu-Link.com,2013-07-09 02:04:00,
2013-07-08 22:20:00,68.7,67.2,29.98,ESE,112,4.2,-999.0,95,-99.99,,,0.00,Acu-Link.com,2013-07-09 02:20:00,
2013-07-08 23:06:00,68.0,66.2,29.98,East,90,1.7,-999.0,94,-99.99,,,0.00,Acu-Link.com,2013-07-09 03:06:00,
2013-07-08 23:37:00,66.7,65.8,29.99,ESE,112,4.2,-999.0,97,-99.99,,,0.00,Acu-Link.com,2013-07-09 03:37:00,